Strona główna
METAR-TAF:

METAR-TAF

Lotnisko :

Paso de los Libres, Argentyna

Szerokość geograficzna: 29-41S, Długość geograficzna: 057-09W, wysokość: 69 m

Aktualna obserwacja pogody

Raport powstał 1 godzina i 10 minut temu, godzina 22:00 UTC
Wiatr 10 kt od północno-północny wschód
Temperatura 30°C
Wilgotność 70%
Ciśnienie 1002 hPa
Widzialność 10 km lub więcej
Brak chmur poniżej 1500 m i brak chmur cumulonimbus

METAR: SARL 222200Z 02010KT CAVOK 30/24 Q1002

czas: 20:10 (23:10 UTC)


TAF: brakujący

Obserwacja i prognoza pogody dla ponad 4000 lotnisk (raport METAR i TAF).

Dostępne stacje oznaczono żółtymi i czerwonymi punktami na mapie.

Najedź kursorem aby zobaczyć nazwę stacji.

Kliknij aby zobaczyć obserwacje i prognozy pogody.

Aby zmienić mapę: kliknij na zielony przycisk z czarnym krzyżykiem, aby powiększyć; na zielony przycisk z myślnikiem, aby pomniejszyć; na zielone strzałki, aby przejść do map sąsiednich.


METAR-TAF: